createdAt,value
2019-05-20T05:09:23.690Z,4.80
2019-05-20T05:11:52.165Z,7.13
2019-05-20T05:14:20.665Z,5.57
2019-05-20T05:16:49.357Z,4.30
2019-05-20T05:19:17.840Z,5.57
2019-05-20T05:21:46.328Z,5.97
2019-05-20T05:24:14.817Z,6.07
2019-05-20T05:26:43.299Z,5.60
2019-05-20T05:29:11.782Z,5.67
2019-05-20T05:31:40.589Z,5.67
2019-05-20T05:34:09.632Z,5.10
2019-05-20T05:36:38.112Z,4.97
2019-05-20T05:39:06.723Z,5.70
2019-05-20T05:41:35.449Z,5.53
2019-05-20T05:44:04.648Z,5.17
2019-05-20T05:46:33.674Z,10.53
2019-05-20T05:49:02.164Z,5.27
2019-05-20T05:51:31.027Z,7.20
2019-05-20T05:53:59.657Z,6.77
2019-05-20T05:56:28.484Z,8.03
2019-05-20T05:58:57.028Z,5.53
2019-05-20T06:01:25.535Z,7.43
2019-05-20T06:03:54.018Z,6.07
2019-05-20T06:06:22.546Z,7.90
2019-05-20T06:08:51.027Z,6.27
2019-05-20T06:11:19.512Z,5.40
2019-05-20T06:13:48.318Z,6.30
2019-05-20T06:16:33.589Z,4.93
2019-05-20T06:18:45.319Z,5.10
2019-05-20T06:21:13.806Z,4.53
2019-05-20T06:23:42.283Z,4.53
2019-05-20T06:26:10.776Z,6.03
2019-05-20T06:28:39.266Z,4.80
2019-05-20T06:31:08.066Z,4.40
2019-05-20T06:33:36.683Z,4.53
2019-05-20T06:36:05.160Z,4.20
2019-05-20T06:38:45.406Z,4.47
2019-05-20T06:41:13.912Z,7.00
2019-05-20T06:43:42.644Z,6.10
2019-05-20T06:46:11.124Z,6.40
2019-05-20T06:48:39.623Z,4.40
2019-05-20T06:51:08.301Z,4.63
2019-05-20T06:53:36.835Z,6.10
2019-05-20T06:56:05.106Z,5.90
2019-05-20T06:58:33.569Z,6.73
2019-05-20T07:01:02.157Z,6.20
2019-05-20T07:03:30.654Z,7.63
2019-05-20T07:05:59.136Z,6.03
2019-05-20T07:08:27.379Z,7.53
2019-05-20T07:10:56.041Z,7.33
2019-05-20T07:13:24.519Z,7.57
2019-05-20T07:15:53.361Z,7.30
2019-05-20T07:18:22.043Z,4.90
2019-05-20T07:20:50.396Z,6.13
2019-05-20T07:23:18.879Z,4.80
2019-05-20T07:25:47.408Z,4.60
2019-05-20T07:28:16.049Z,6.73
2019-05-20T07:30:44.666Z,6.63
2019-05-20T07:33:13.135Z,7.13
2019-05-20T07:35:41.653Z,7.10
2019-05-20T07:38:10.118Z,7.30
2019-05-20T07:40:38.933Z,6.47
2019-05-20T07:43:07.406Z,6.23
2019-05-20T07:45:35.926Z,6.57
2019-05-20T07:48:04.430Z,6.60
2019-05-20T07:50:33.879Z,5.90
2019-05-20T07:53:02.722Z,5.00
2019-05-20T07:55:31.214Z,5.00
2019-05-20T07:58:00.210Z,5.20
2019-05-20T08:00:28.692Z,5.13
2019-05-20T08:02:57.707Z,4.90
2019-05-20T08:05:26.184Z,5.33
2019-05-20T08:07:54.687Z,5.90
2019-05-20T08:10:23.446Z,4.73
2019-05-20T08:12:51.920Z,6.07
2019-05-20T08:15:20.397Z,5.47
2019-05-20T08:17:49.069Z,5.80
2019-05-20T08:20:17.797Z,5.30
2019-05-20T08:22:46.261Z,5.73
2019-05-20T08:25:14.765Z,6.53
2019-05-20T08:27:43.252Z,6.10
2019-05-20T08:30:14.225Z,5.97
2019-05-20T08:32:40.487Z,7.33
2019-05-20T08:35:09.234Z,4.27
2019-05-20T08:37:45.327Z,7.80
2019-05-20T08:40:06.072Z,4.67
2019-05-20T08:42:34.612Z,7.57
2019-05-20T08:45:03.588Z,8.10
2019-05-20T08:47:32.991Z,6.87
2019-05-20T08:50:00.434Z,7.50
2019-05-20T08:52:28.855Z,7.27
2019-05-20T08:54:57.342Z,7.37
2019-05-20T08:57:25.803Z,5.93
2019-05-20T08:59:54.266Z,6.27
2019-05-20T09:02:22.755Z,6.27
2019-05-20T09:04:51.225Z,6.43
2019-05-20T09:07:19.691Z,6.57
2019-05-20T09:09:48.498Z,6.50
2019-05-20T09:12:16.970Z,5.30
2019-05-20T09:14:45.473Z,5.60
2019-05-20T09:17:13.951Z,5.10
2019-05-20T09:19:46.695Z,6.63
2019-05-20T09:22:11.298Z,5.87
2019-05-20T09:24:40.011Z,3.70
2019-05-20T09:27:08.291Z,5.47
2019-05-20T09:29:38.176Z,4.57
2019-05-20T09:32:05.235Z,5.60
2019-05-20T09:34:33.958Z,6.00
2019-05-20T09:37:02.423Z,6.13
2019-05-20T09:39:30.713Z,5.50
2019-05-20T09:41:59.461Z,5.77
2019-05-20T09:44:28.286Z,5.93
2019-05-20T09:46:56.969Z,5.17
2019-05-20T09:49:25.308Z,6.23
2019-05-20T09:51:53.715Z,6.00
2019-05-20T09:54:22.198Z,6.60
2019-05-20T09:56:50.461Z,7.03
2019-05-20T09:59:18.955Z,7.37
2019-05-20T10:01:49.595Z,5.77
2019-05-20T10:04:15.923Z,6.53
2019-05-20T10:06:44.381Z,7.53
2019-05-20T10:09:12.665Z,8.10
2019-05-20T10:11:41.126Z,8.40
2019-05-20T10:14:10.217Z,7.97
2019-05-20T10:16:38.710Z,8.77
2019-05-20T10:19:07.337Z,8.77
2019-05-20T10:21:35.810Z,6.97
2019-05-20T10:24:04.905Z,8.93
2019-05-20T10:26:33.387Z,8.73
2019-05-20T10:29:02.109Z,6.33
2019-05-20T10:31:30.724Z,8.00
2019-05-20T10:33:59.170Z,8.63
2019-05-20T10:36:28.243Z,9.53
2019-05-20T10:38:59.341Z,12.60
2019-05-20T10:41:25.332Z,10.53
2019-05-20T10:43:54.251Z,11.20
2019-05-20T10:46:23.111Z,13.47
2019-05-20T10:48:51.645Z,10.83
2019-05-20T10:51:20.138Z,9.27
2019-05-20T10:53:48.633Z,11.30
2019-05-20T10:56:17.127Z,11.77
2019-05-20T10:58:45.632Z,10.37
2019-05-20T11:01:14.103Z,6.43
2019-05-20T11:03:42.361Z,12.23
2019-05-20T11:06:10.862Z,12.00
2019-05-20T11:08:39.347Z,8.60
2019-05-20T11:11:08.072Z,9.77
2019-05-20T11:13:36.566Z,10.63
2019-05-20T11:16:05.114Z,11.70
2019-05-20T11:18:33.886Z,11.43
2019-05-20T11:21:02.476Z,9.30
2019-05-20T11:23:31.300Z,12.40
2019-05-20T11:26:00.188Z,10.87
2019-05-20T11:28:29.054Z,9.17
2019-05-20T11:30:57.598Z,11.33
2019-05-20T11:33:26.104Z,8.73
2019-05-20T11:35:54.678Z,10.97
2019-05-20T11:38:23.289Z,11.67
2019-05-20T11:40:51.792Z,10.83
2019-05-20T11:43:20.486Z,11.73
2019-05-20T11:45:49.562Z,9.87
2019-05-20T11:48:18.065Z,10.53
2019-05-20T11:50:46.573Z,9.67
2019-05-20T11:53:14.855Z,11.67
2019-05-20T11:55:43.716Z,12.40
2019-05-20T11:58:16.220Z,10.83
2019-05-20T12:00:40.864Z,11.80
2019-05-20T12:03:09.389Z,12.40
2019-05-20T12:05:38.544Z,13.17
2019-05-20T12:08:07.056Z,13.77
2019-05-20T12:10:35.653Z,12.03
2019-05-20T12:13:04.146Z,10.87
2019-05-20T12:15:32.977Z,12.47
2019-05-20T12:18:01.853Z,12.13
2019-05-20T12:20:30.355Z,12.73
2019-05-20T12:22:59.155Z,10.90
2019-05-20T12:25:28.008Z,16.03
2019-05-20T12:27:56.739Z,15.40
2019-05-20T12:30:25.056Z,15.53
2019-05-20T12:33:17.255Z,13.20
2019-05-20T12:35:22.374Z,14.07
2019-05-20T12:37:51.139Z,8.60
2019-05-20T12:40:19.629Z,8.23
2019-05-20T12:42:48.762Z,7.70
2019-05-20T12:45:17.267Z,9.23
2019-05-20T12:47:46.035Z,11.43
2019-05-20T12:50:14.799Z,12.50
2019-05-20T12:52:43.308Z,8.17
2019-05-20T12:55:11.841Z,8.63
2019-05-20T12:57:40.956Z,10.23
2019-05-20T13:00:09.493Z,13.83
2019-05-20T13:02:37.994Z,11.97
2019-05-20T13:05:06.753Z,8.10
2019-05-20T13:07:35.518Z,11.00
2019-05-20T13:10:05.243Z,10.00
2019-05-20T13:12:33.750Z,12.97
2019-05-20T13:15:02.232Z,12.83
2019-05-20T13:17:30.783Z,12.87
2019-05-20T13:19:59.258Z,13.93
2019-05-20T13:22:28.098Z,14.73
2019-05-20T13:24:56.359Z,14.03
2019-05-20T13:27:25.030Z,14.50
2019-05-20T13:29:53.819Z,14.90
2019-05-20T13:32:22.635Z,14.00
2019-05-20T13:34:50.912Z,11.87
2019-05-20T13:37:19.423Z,14.20
2019-05-20T13:39:48.339Z,16.40
2019-05-20T13:42:16.843Z,15.77
2019-05-20T13:44:45.358Z,16.93
2019-05-20T13:47:13.635Z,17.67
2019-05-20T13:49:42.238Z,18.60
2019-05-20T13:52:10.722Z,17.97
2019-05-20T13:54:39.221Z,17.47
2019-05-20T13:57:12.331Z,18.90
2019-05-20T13:59:36.618Z,16.00
2019-05-20T14:02:05.460Z,15.93
2019-05-20T14:04:34.238Z,13.77
2019-05-20T14:07:02.743Z,17.43
2019-05-20T14:09:31.243Z,21.50
2019-05-20T14:11:59.775Z,17.27
2019-05-20T14:14:28.742Z,17.80
2019-05-20T14:16:56.981Z,19.60
2019-05-20T14:19:25.544Z,23.50
2019-05-20T14:21:54.314Z,21.70
2019-05-20T14:24:23.073Z,18.77
2019-05-20T14:26:51.753Z,19.70
2019-05-20T14:29:20.373Z,17.63
2019-05-20T14:31:48.884Z,17.27
2019-05-20T14:34:17.655Z,20.97
2019-05-20T14:36:46.150Z,21.17
2019-05-20T14:39:15.286Z,21.27
2019-05-20T14:41:43.577Z,19.57
2019-05-20T14:44:12.082Z,16.60
2019-05-20T14:46:40.867Z,19.90
2019-05-20T14:49:09.399Z,17.43
2019-05-20T14:51:38.046Z,18.63
2019-05-20T14:54:06.545Z,17.57
2019-05-20T14:56:35.147Z,16.17
2019-05-20T14:59:03.632Z,15.97
2019-05-20T15:01:31.877Z,15.07
2019-05-20T15:04:00.386Z,16.07
2019-05-20T15:06:29.384Z,15.60
2019-05-20T15:08:58.249Z,13.83
2019-05-20T15:11:37.580Z,12.07
2019-05-20T15:13:59.898Z,12.03
2019-05-20T15:16:24.755Z,11.03
2019-05-20T15:18:53.827Z,9.90
2019-05-20T15:21:27.679Z,9.77
2019-05-20T15:23:51.346Z,11.03
2019-05-20T15:26:20.212Z,10.43
2019-05-20T15:28:48.828Z,9.47
2019-05-20T15:31:17.322Z,10.07
2019-05-20T15:33:45.818Z,8.80
2019-05-20T15:36:14.451Z,8.63
2019-05-20T15:38:42.945Z,9.17
2019-05-20T15:41:11.489Z,9.20
2019-05-20T15:43:40.296Z,8.70
2019-05-20T15:46:08.787Z,8.23
2019-05-20T15:48:37.594Z,8.30
2019-05-20T15:51:06.356Z,8.57
2019-05-20T15:53:35.251Z,9.33
2019-05-20T15:56:03.963Z,9.33
2019-05-20T15:58:32.871Z,10.17
2019-05-20T16:01:01.709Z,10.20
2019-05-20T16:03:30.210Z,9.97
2019-05-20T16:05:59.945Z,10.17
2019-05-20T16:08:27.447Z,11.77
2019-05-20T16:10:56.189Z,11.00
2019-05-20T16:13:24.593Z,11.33
2019-05-20T16:15:53.069Z,11.40
2019-05-20T16:18:21.567Z,10.67
2019-05-20T16:20:50.059Z,11.20
2019-05-20T16:23:18.550Z,10.93
2019-05-20T16:25:47.472Z,12.00
2019-05-20T16:28:15.931Z,12.43
2019-05-20T16:30:44.422Z,13.17
2019-05-20T16:33:12.948Z,12.23
2019-05-20T16:35:41.593Z,13.90
2019-05-20T16:38:10.376Z,13.57
2019-05-20T16:40:39.368Z,14.53
2019-05-20T16:43:08.214Z,14.80
2019-05-20T16:45:36.721Z,13.43
2019-05-20T16:48:05.382Z,10.53
2019-05-20T16:50:34.256Z,11.83
2019-05-20T16:53:03.014Z,10.77
2019-05-20T16:55:31.642Z,10.40
2019-05-20T16:58:00.491Z,9.73
2019-05-20T17:00:31.842Z,8.97
2019-05-20T17:02:57.271Z,10.40
2019-05-20T17:05:25.758Z,10.23
2019-05-20T17:07:54.247Z,11.17
2019-05-20T17:10:22.752Z,11.87
2019-05-20T17:12:51.598Z,11.60
2019-05-20T17:15:20.129Z,13.27
2019-05-20T17:17:48.635Z,12.30
2019-05-20T17:20:16.901Z,11.87
2019-05-20T17:22:45.405Z,11.63
2019-05-20T17:25:14.333Z,10.63
2019-05-20T17:27:43.208Z,10.10
2019-05-20T17:30:11.957Z,10.10
2019-05-20T17:32:40.820Z,9.13
2019-05-20T17:35:09.579Z,8.43
2019-05-20T17:37:38.075Z,8.37
2019-05-20T17:40:06.637Z,8.50
2019-05-20T17:42:35.306Z,8.70
2019-05-20T17:45:03.864Z,8.57
2019-05-20T17:47:32.131Z,8.87
2019-05-20T17:50:00.656Z,8.13
2019-05-20T17:52:29.158Z,8.37
2019-05-20T17:54:57.984Z,9.13
2019-05-20T17:57:26.522Z,9.47
2019-05-20T17:59:54.986Z,7.87
2019-05-20T18:02:23.739Z,9.30
2019-05-20T18:04:52.612Z,8.10
2019-05-20T18:07:21.134Z,9.87
2019-05-20T18:09:49.902Z,10.70
2019-05-20T18:12:18.353Z,8.93
2019-05-20T18:14:49.789Z,12.13
2019-05-20T18:17:18.282Z,12.83
2019-05-20T18:19:46.568Z,9.87
2019-05-20T18:22:15.185Z,10.27
2019-05-20T18:24:43.680Z,11.70
2019-05-20T18:27:12.329Z,10.77
2019-05-20T18:29:40.928Z,11.87
2019-05-20T18:32:09.419Z,11.27
2019-05-20T18:34:38.214Z,10.87
2019-05-20T18:37:06.902Z,11.13
2019-05-20T18:39:35.394Z,8.80
2019-05-20T18:42:04.149Z,9.57
2019-05-20T18:44:32.643Z,10.60
2019-05-20T18:47:01.810Z,10.93
2019-05-20T18:49:30.691Z,8.60
2019-05-20T18:51:59.538Z,10.73
2019-05-20T18:54:28.039Z,12.33
2019-05-20T18:56:56.752Z,13.60
2019-05-20T18:59:25.239Z,15.43
2019-05-20T19:02:04.490Z,12.87
2019-05-20T19:04:22.229Z,14.80
2019-05-20T19:06:50.730Z,14.93
2019-05-20T19:09:19.241Z,13.50
2019-05-20T19:11:47.531Z,14.73
2019-05-20T19:14:16.660Z,11.43
2019-05-20T19:16:45.164Z,15.00
2019-05-20T19:19:14.078Z,15.00
2019-05-20T19:21:44.595Z,15.17
2019-05-20T19:24:13.231Z,16.43
2019-05-20T19:26:41.723Z,13.30
2019-05-20T19:29:10.586Z,15.40
2019-05-20T19:31:39.120Z,15.07
2019-05-20T19:34:07.823Z,13.90
2019-05-20T19:36:36.446Z,15.63
2019-05-20T19:39:06.542Z,14.17
2019-05-20T19:41:35.137Z,14.97
2019-05-20T19:44:03.654Z,12.00
2019-05-20T19:46:32.169Z,12.57
2019-05-20T19:49:00.787Z,14.73
2019-05-20T19:51:29.756Z,14.53
2019-05-20T19:53:58.499Z,9.87
2019-05-20T19:56:27.017Z,14.53
2019-05-20T19:58:55.659Z,14.27
2019-05-20T20:01:24.562Z,12.10
2019-05-20T20:03:53.436Z,14.83
2019-05-20T20:06:22.169Z,15.13
2019-05-20T20:08:51.303Z,15.87
2019-05-20T20:11:19.579Z,13.13
2019-05-20T20:13:48.091Z,15.57
2019-05-20T20:16:18.124Z,16.73
2019-05-20T20:18:45.688Z,20.50
2019-05-20T20:21:14.574Z,17.27
2019-05-20T20:23:43.450Z,12.90
2019-05-20T20:26:11.975Z,13.43
2019-05-20T20:28:40.749Z,15.73
2019-05-20T20:31:11.101Z,13.97
2019-05-20T20:33:37.974Z,16.20
2019-05-20T20:36:06.896Z,15.43
2019-05-20T20:38:35.360Z,14.77
2019-05-20T20:41:03.883Z,15.90
2019-05-20T20:43:32.327Z,16.57
2019-05-20T20:46:01.282Z,15.03
2019-05-20T20:48:29.770Z,15.83
2019-05-20T20:50:58.655Z,16.27
2019-05-20T20:53:27.171Z,16.83
2019-05-20T20:55:55.679Z,11.00
